createdAt,value
2023-01-23T00:02:13.114Z,31.45
2023-01-23T00:07:14.700Z,29.45
2023-01-23T00:12:16.392Z,30.60
2023-01-23T00:17:17.948Z,36.25
2023-01-23T00:22:19.472Z,35.65
2023-01-23T00:27:21.144Z,33.55
2023-01-23T00:32:22.933Z,34.60
2023-01-23T00:37:24.492Z,34.80
2023-01-23T00:42:26.090Z,38.63
2023-01-23T00:47:27.743Z,38.25
2023-01-23T00:52:30.283Z,42.20
2023-01-23T00:57:31.860Z,38.47
2023-01-23T01:02:33.705Z,40.08
2023-01-23T01:07:35.559Z,37.75
2023-01-23T01:12:37.380Z,36.05
2023-01-23T01:17:39.212Z,35.10
2023-01-23T01:22:40.751Z,31.67
2023-01-23T01:27:42.367Z,39.85
2023-01-23T01:32:44.572Z,39.75
2023-01-23T01:37:46.600Z,34.70
2023-01-23T01:42:53.629Z,40.85
2023-01-23T01:47:55.429Z,39.47
2023-01-23T01:52:57.025Z,39.50
2023-01-23T01:57:58.915Z,38.53
2023-01-23T02:03:03.410Z,37.80
2023-01-23T02:08:32.596Z,38.65
2023-01-23T02:13:37.138Z,40.35
2023-01-23T02:18:44.562Z,41.60
2023-01-23T02:23:52.305Z,36.83
2023-01-23T02:28:59.319Z,40.53
2023-01-23T02:34:05.914Z,33.03
2023-01-23T02:39:13.410Z,34.05
2023-01-23T02:44:27.399Z,31.60
2023-01-23T02:49:34.127Z,35.00
2023-01-23T02:54:40.381Z,31.42
2023-01-23T03:00:00.699Z,34.72
2023-01-23T03:05:02.836Z,32.40
2023-01-23T03:10:07.486Z,31.63
2023-01-23T03:15:10.145Z,32.72
2023-01-23T03:20:11.884Z,30.88
2023-01-23T03:25:13.811Z,30.23
2023-01-23T03:30:17.259Z,29.88
2023-01-23T03:35:22.084Z,34.22
2023-01-23T03:40:45.445Z,33.17
2023-01-23T03:45:50.309Z,25.85
2023-01-23T03:50:53.085Z,30.13
2023-01-23T03:55:56.198Z,28.95
2023-01-23T04:01:01.375Z,29.63
2023-01-23T04:06:03.403Z,31.77
2023-01-23T04:11:08.397Z,31.67
2023-01-23T04:16:10.070Z,31.50
2023-01-23T04:21:11.896Z,26.77
2023-01-23T04:26:14.461Z,27.65
2023-01-23T04:31:16.444Z,30.50
2023-01-23T04:36:18.273Z,28.33
2023-01-23T04:41:25.923Z,28.05
2023-01-23T04:46:34.896Z,23.58
2023-01-23T04:51:44.472Z,23.85
2023-01-23T04:56:46.825Z,30.25
2023-01-23T05:01:49.807Z,27.33
2023-01-23T05:06:51.968Z,23.13
2023-01-23T05:11:53.930Z,25.05
2023-01-23T05:16:58.020Z,24.83
2023-01-23T05:22:10.259Z,25.67
2023-01-23T05:27:12.938Z,28.52
2023-01-23T05:32:17.256Z,25.45
2023-01-23T05:37:20.374Z,27.20
2023-01-23T05:42:25.802Z,26.55
2023-01-23T05:47:37.276Z,25.10
2023-01-23T05:52:41.067Z,25.85
2023-01-23T05:57:42.682Z,23.15
2023-01-23T06:03:08.921Z,25.45
2023-01-23T06:08:29.103Z,24.52
2023-01-23T06:13:31.421Z,22.85
2023-01-23T06:18:33.308Z,26.85
2023-01-23T06:23:34.888Z,24.42
2023-01-23T06:28:37.350Z,25.13
2023-01-23T06:33:41.170Z,26.13
2023-01-23T06:38:46.017Z,25.67
2023-01-23T06:43:49.921Z,25.25
2023-01-23T06:48:56.639Z,26.95
2023-01-23T06:53:58.702Z,24.17
2023-01-23T06:59:00.696Z,21.70
2023-01-23T07:04:06.196Z,24.95
2023-01-23T07:09:08.022Z,25.23
2023-01-23T07:14:10.985Z,26.33
2023-01-23T07:19:14.147Z,23.73
2023-01-23T07:24:17.239Z,24.02
2023-01-23T07:29:18.779Z,22.10
2023-01-23T07:34:20.337Z,25.08
2023-01-23T07:39:21.947Z,24.60
2023-01-23T07:44:23.644Z,18.88
2023-01-23T07:49:25.275Z,21.13
2023-01-23T07:54:26.844Z,23.08
2023-01-23T07:59:28.423Z,20.70
2023-01-23T08:04:29.987Z,22.17
2023-01-23T08:09:31.670Z,22.40
2023-01-23T08:14:33.229Z,19.90
2023-01-23T08:19:34.759Z,21.83
2023-01-23T08:24:36.522Z,19.48
2023-01-23T08:29:38.051Z,19.83
2023-01-23T08:34:39.605Z,20.48
2023-01-23T08:39:41.168Z,20.73
2023-01-23T08:44:44.918Z,19.63
2023-01-23T08:49:46.527Z,21.98
2023-01-23T08:54:48.056Z,20.52
2023-01-23T08:59:49.619Z,22.90
2023-01-23T09:04:51.198Z,21.45
2023-01-23T09:09:54.944Z,21.70
2023-01-23T09:14:56.483Z,21.25
2023-01-23T09:20:00.494Z,20.75
2023-01-23T09:25:02.374Z,20.08
2023-01-23T09:30:04.581Z,24.98
2023-01-23T09:35:06.594Z,19.55
2023-01-23T09:40:16.899Z,22.73
2023-01-23T09:45:24.795Z,23.00
2023-01-23T09:50:26.433Z,23.77
2023-01-23T09:55:44.135Z,24.05
2023-01-23T10:00:46.500Z,24.40
2023-01-23T10:05:54.253Z,23.00
2023-01-23T10:11:08.517Z,24.70
2023-01-23T10:16:24.583Z,26.13
2023-01-23T10:21:38.930Z,23.67
2023-01-23T10:26:45.067Z,23.75
2023-01-23T10:31:58.608Z,25.00
2023-01-23T10:37:12.206Z,24.60
2023-01-23T10:42:14.270Z,24.48
2023-01-23T10:47:42.564Z,24.98
2023-01-23T10:52:46.077Z,22.50
2023-01-23T10:57:49.776Z,20.55
2023-01-23T11:02:51.426Z,21.70
2023-01-23T11:07:56.032Z,21.92
2023-01-23T11:13:00.646Z,20.80
2023-01-23T11:18:02.375Z,20.08
2023-01-23T11:23:15.849Z,19.00
2023-01-23T11:28:36.678Z,18.70
2023-01-23T11:33:57.203Z,17.00
2023-01-23T11:39:34.670Z,18.30
2023-01-23T11:44:45.642Z,19.08
2023-01-23T11:50:18.058Z,19.17
2023-01-23T11:55:42.334Z,18.90
2023-01-23T12:00:49.542Z,19.48
2023-01-23T12:06:03.539Z,18.38
2023-01-23T12:11:17.110Z,18.50
2023-01-23T12:16:30.834Z,20.58
2023-01-23T12:21:41.182Z,19.95
2023-01-23T12:27:24.312Z,18.05
2023-01-23T12:32:43.002Z,17.63
2023-01-23T12:38:16.155Z,22.95
2023-01-23T12:43:38.174Z,19.00
2023-01-23T12:48:53.851Z,18.38
2023-01-23T12:53:58.603Z,19.10
2023-01-23T12:59:14.252Z,18.25
2023-01-23T13:04:48.046Z,19.00
2023-01-23T13:10:47.505Z,17.92
2023-01-23T13:16:04.481Z,17.52
2023-01-23T13:21:29.291Z,19.00
2023-01-23T13:26:30.965Z,18.65
2023-01-23T13:31:36.061Z,20.10
2023-01-23T13:36:38.160Z,17.83
2023-01-23T13:41:39.840Z,20.13
2023-01-23T14:20:23.818Z,16.88
2023-01-23T14:25:26.927Z,16.88
2023-01-23T14:30:30.352Z,17.48
2023-01-23T14:35:32.973Z,16.30
2023-01-23T14:40:47.118Z,18.42
2023-01-23T14:46:22.237Z,18.30
2023-01-23T14:51:26.653Z,14.95
2023-01-23T14:56:33.165Z,16.50
2023-01-23T15:01:35.968Z,18.05
2023-01-23T15:06:37.863Z,19.20
2023-01-23T15:11:39.567Z,15.10
2023-01-23T15:16:43.581Z,15.57
2023-01-23T15:21:45.200Z,16.83
2023-01-23T15:26:57.923Z,17.10
2023-01-23T15:32:01.055Z,17.35
2023-01-23T15:37:21.879Z,14.80
2023-01-23T15:42:27.665Z,15.70
2023-01-23T15:47:31.036Z,13.68
2023-01-23T15:52:50.696Z,15.68
2023-01-23T15:57:53.530Z,14.70
2023-01-23T16:02:57.707Z,15.98
2023-01-23T16:08:04.437Z,14.32
2023-01-23T16:13:07.823Z,16.35
2023-01-23T16:18:09.854Z,16.27
2023-01-23T16:23:16.191Z,16.58
2023-01-23T16:28:19.319Z,13.93
2023-01-23T16:33:21.938Z,14.27
2023-01-23T16:38:27.199Z,17.25
2023-01-23T16:43:28.777Z,15.35
2023-01-23T16:48:30.337Z,15.25
2023-01-23T16:53:36.567Z,16.85
2023-01-23T16:58:40.041Z,17.85
2023-01-23T17:03:42.266Z,16.40
2023-01-23T17:08:43.950Z,16.35
2023-01-23T17:13:45.637Z,16.02
2023-01-23T17:18:47.389Z,18.40
2023-01-23T17:23:49.078Z,17.02
2023-01-23T17:28:50.705Z,18.45
2023-01-23T17:33:52.721Z,18.38
2023-01-23T17:39:00.439Z,19.38
2023-01-23T17:44:01.988Z,17.95
2023-01-23T17:49:04.341Z,17.75
2023-01-23T17:54:09.715Z,16.77
2023-01-23T17:59:11.818Z,16.67
2023-01-23T18:04:22.090Z,19.55
2023-01-23T18:09:23.631Z,16.67
2023-01-23T18:15:03.532Z,17.63
2023-01-23T18:20:16.548Z,18.50
2023-01-23T18:25:26.078Z,17.23
2023-01-23T18:30:41.694Z,19.63
2023-01-23T18:36:06.334Z,17.27
2023-01-23T18:41:21.081Z,20.10
2023-01-23T18:46:27.895Z,14.93
2023-01-23T18:51:41.307Z,15.60
2023-01-23T18:56:55.779Z,16.30
2023-01-23T19:02:21.358Z,14.88
2023-01-23T19:07:23.188Z,17.20
2023-01-23T19:13:06.339Z,14.88
2023-01-23T19:18:40.349Z,15.05
2023-01-23T19:24:06.905Z,15.57
2023-01-23T19:29:21.064Z,16.38
2023-01-23T19:34:23.788Z,18.30
2023-01-23T19:39:25.381Z,15.20
2023-01-23T19:44:28.972Z,14.68
2023-01-23T19:49:30.565Z,14.75
2023-01-23T19:54:32.119Z,16.75
2023-01-23T19:59:33.713Z,15.68
2023-01-23T20:04:35.284Z,13.68
2023-01-23T20:09:36.800Z,16.13
2023-01-23T20:14:38.353Z,15.30
2023-01-23T20:19:40.202Z,15.50
2023-01-23T20:24:41.714Z,15.68
2023-01-23T20:29:43.247Z,16.40
2023-01-23T20:34:44.864Z,16.65
2023-01-23T20:39:46.523Z,16.05
2023-01-23T20:44:48.085Z,16.95
2023-01-23T20:49:49.690Z,18.15
2023-01-23T20:54:51.315Z,16.30
2023-01-23T20:59:52.845Z,15.80
2023-01-23T21:04:54.446Z,16.65
2023-01-23T21:09:55.962Z,16.92
2023-01-23T21:14:57.489Z,13.98
2023-01-23T21:19:59.054Z,15.70
2023-01-23T21:25:00.621Z,15.88
2023-01-23T21:30:02.167Z,17.40
2023-01-23T21:35:03.849Z,17.55
2023-01-23T21:40:06.109Z,20.25
2023-01-23T21:45:08.266Z,17.80
2023-01-23T21:50:10.406Z,17.27
2023-01-23T21:55:11.971Z,18.13
2023-01-23T22:00:32.337Z,17.48
2023-01-23T22:05:36.598Z,18.48
2023-01-23T22:10:38.266Z,17.73
2023-01-23T22:15:39.835Z,18.67
2023-01-23T22:20:41.351Z,18.73
2023-01-23T22:25:42.899Z,18.40
2023-01-23T22:30:44.464Z,18.75
2023-01-23T22:35:46.177Z,20.52
2023-01-23T22:41:00.006Z,18.80
2023-01-23T22:46:15.940Z,19.77
2023-01-23T22:51:24.611Z,21.88
2023-01-23T22:56:28.134Z,21.13
2023-01-23T23:01:30.156Z,23.23
2023-01-23T23:06:31.732Z,19.92
2023-01-23T23:11:33.430Z,23.83
2023-01-23T23:16:35.026Z,21.38
2023-01-23T23:21:37.843Z,20.63
2023-01-23T23:26:39.388Z,21.10
2023-01-23T23:31:41.343Z,21.70
2023-01-23T23:36:43.073Z,19.90
2023-01-23T23:41:44.657Z,21.40
2023-01-23T23:46:46.545Z,21.98
2023-01-23T23:51:48.102Z,22.80
2023-01-23T23:56:49.721Z,22.63
